Time;durP1;ratioP1;P1;durP2;ratioP2;P2;SDS_P1;SDS_P2;PMS_P1;PMS_P2;Temp;Humidity;BMP_temperature;BMP_pressure;BME280_temperature;BME280_humidity;BME280_pressure;Samples;Min_cycle;Max_cycle;Signal;HPM_P1;HPM_P2
2023/10/27 00:00:08;;;;;;;2.90;2.40;;;;;;;22.19;64.86;95290.56;5050440;28;20228;-24
2023/10/27 00:02:38;;;;;;;3.77;2.17;;;;;;;22.23;64.98;95287.09;5041086;22;20288;-30
2023/10/27 00:05:06;;;;;;;2.87;2.00;;;;;;;22.24;64.94;95286.28;5022862;28;20201;-26
2023/10/27 00:07:32;;;;;;;2.13;1.80;;;;;;;22.23;64.92;95281.16;5019355;28;20267;-26
2023/10/27 00:09:59;;;;;;;2.13;1.93;;;;;;;22.24;64.86;95286.28;5018188;28;20206;-30
2023/10/27 00:12:26;;;;;;;3.50;1.90;;;;;;;22.24;64.83;95286.28;5018673;28;20218;-27
2023/10/27 00:14:52;;;;;;;2.53;2.10;;;;;;;22.24;64.91;95288.81;5026228;28;20204;-26
2023/10/27 00:17:19;;;;;;;3.00;2.07;;;;;;;22.23;65.24;95292.22;5023264;28;20559;-28
2023/10/27 00:19:46;;;;;;;2.43;2.00;;;;;;;22.23;64.83;95286.28;5018428;28;20623;-33
2023/10/27 00:22:12;;;;;;;2.90;2.03;;;;;;;22.23;65.22;95282.00;5026000;28;20703;-27
2023/10/27 00:24:39;;;;;;;2.17;1.87;;;;;;;22.23;65.35;95289.66;5020395;28;20660;-26
2023/10/27 00:27:06;;;;;;;3.57;2.10;;;;;;;22.23;65.35;95287.09;5021815;28;20244;-28
2023/10/27 00:29:32;;;;;;;1.93;1.73;;;;;;;22.22;65.15;95287.97;5021637;28;20213;-26
2023/10/27 00:31:59;;;;;;;2.33;1.80;;;;;;;22.23;65.15;95291.41;5013949;28;20794;-26
2023/10/27 00:34:25;;;;;;;2.53;1.90;;;;;;;22.23;65.25;95287.09;5020212;28;20276;-31
2023/10/27 00:36:52;;;;;;;2.57;2.10;;;;;;;22.23;65.14;95296.50;5023467;28;20204;-26
2023/10/27 00:39:19;;;;;;;2.17;1.80;;;;;;;22.23;65.04;95296.50;5031151;28;20233;-26
2023/10/27 00:41:45;;;;;;;2.23;1.83;;;;;;;22.24;64.92;95303.31;5022244;28;20279;-26
2023/10/27 00:44:12;;;;;;;1.80;1.63;;;;;;;22.24;65.03;95298.19;5019910;28;20623;-26
2023/10/27 00:46:39;;;;;;;2.57;1.80;;;;;;;22.23;65.10;95294.78;5022668;28;20233;-28
2023/10/27 00:49:05;;;;;;;2.77;1.70;;;;;;;22.25;65.03;95308.41;5027576;28;20202;-27
2023/10/27 00:51:32;;;;;;;2.13;1.90;;;;;;;22.24;64.84;95300.75;5031208;28;20259;-26
2023/10/27 00:53:59;;;;;;;2.47;1.80;;;;;;;22.25;64.91;95299.88;5026244;28;20708;-27
2023/10/27 00:56:25;;;;;;;2.87;1.87;;;;;;;22.23;65.07;95299.91;5027312;28;20213;-26
2023/10/27 00:58:52;;;;;;;2.00;1.80;;;;;;;22.23;64.95;95299.91;5007478;28;20202;-26
2023/10/27 01:01:19;;;;;;;3.07;1.90;;;;;;;22.24;65.05;95300.75;5019843;28;20229;-26
2023/10/27 01:03:45;;;;;;;2.90;1.97;;;;;;;22.24;64.97;95301.63;5016438;28;20633;-27
2023/10/27 01:06:12;;;;;;;3.00;1.93;;;;;;;22.24;65.38;95303.31;5010768;28;20206;-28
2023/10/27 01:08:38;;;;;;;2.03;1.60;;;;;;;22.24;65.04;95305.88;5033861;28;20205;-27
2023/10/27 01:11:05;;;;;;;2.17;1.73;;;;;;;22.23;65.07;95306.75;5035469;28;20667;-26
2023/10/27 01:13:32;;;;;;;2.40;1.63;;;;;;;22.14;65.22;95284.63;5024660;28;20647;-27
2023/10/27 01:15:59;;;;;;;4.27;1.87;;;;;;;22.23;65.05;95314.44;5020395;28;20231;-26
2023/10/27 01:18:26;;;;;;;2.50;1.87;;;;;;;22.24;64.97;95303.31;5027012;28;20301;-26
2023/10/27 01:20:52;;;;;;;2.03;1.70;;;;;;;22.24;65.12;95299.06;5026848;28;20606;-26
2023/10/27 01:23:19;;;;;;;2.23;1.73;;;;;;;22.24;65.05;95303.31;5035228;28;20197;-26
2023/10/27 01:25:45;;;;;;;2.17;1.67;;;;;;;22.24;64.97;95301.63;5031828;28;20300;-26
2023/10/27 01:28:12;;;;;;;2.57;1.90;;;;;;;22.25;65.07;95299.88;5035339;28;20734;-29
2023/10/27 01:30:38;;;;;;;1.93;1.77;;;;;;;22.24;64.97;95293.09;5034621;28;20221;-29
2023/10/27 01:33:05;;;;;;;2.33;1.60;;;;;;;22.24;64.87;95293.09;5030223;28;20304;-29
2023/10/27 01:35:32;;;;;;;3.37;2.03;;;;;;;22.24;64.99;95300.75;5030491;28;20205;-26
2023/10/27 01:37:58;;;;;;;2.17;1.60;;;;;;;22.23;65.10;95291.41;5030792;28;20226;-26
2023/10/27 01:40:25;;;;;;;2.00;1.80;;;;;;;22.23;65.02;95291.41;5024918;28;20241;-27
2023/10/27 01:42:51;;;;;;;2.43;1.73;;;;;;;22.22;65.14;95287.97;5023970;28;20268;-26
2023/10/27 01:45:18;;;;;;;2.00;1.80;;;;;;;22.23;65.00;95286.28;5023037;28;20324;-26
2023/10/27 01:47:45;;;;;;;2.27;1.77;;;;;;;22.23;65.21;95278.59;5031808;28;20771;-26
2023/10/27 01:50:11;;;;;;;2.73;1.70;;;;;;;22.24;65.00;95282.84;5032532;28;20204;-26
2023/10/27 01:52:38;;;;;;;2.10;1.70;;;;;;;22.23;65.04;95282.00;5034166;28;20614;-26
2023/10/27 01:55:07;;;;;;;1.70;1.60;;;;;;;22.20;64.98;95274.34;5030001;28;20289;-31
2023/10/27 01:57:34;;;;;;;1.97;1.60;;;;;;;22.23;64.98;95276.03;5028369;28;20676;-26
2023/10/27 02:00:01;;;;;;;2.13;1.73;;;;;;;22.23;64.93;95276.88;5028138;28;20264;-26
2023/10/27 02:02:27;;;;;;;1.83;1.60;;;;;;;22.02;65.03;95238.69;5031877;28;20253;-26
2023/10/27 02:04:54;;;;;;;1.90;1.70;;;;;;;22.23;65.04;95282.00;5024674;28;20602;-26
2023/10/27 02:07:24;;;;;;;2.03;1.83;;;;;;;22.23;65.00;95282.00;5023264;28;20210;-26
2023/10/27 02:09:51;;;;;;;2.63;1.70;;;;;;;22.23;64.88;95279.44;5034054;28;20213;-26
2023/10/27 02:12:18;;;;;;;1.70;1.60;;;;;;;22.23;65.03;95282.00;5033557;28;20265;-28
2023/10/27 02:14:44;;;;;;;2.60;1.63;;;;;;;22.23;64.97;95281.16;5033108;28;20267;-28
2023/10/27 02:17:11;;;;;;;1.83;1.57;;;;;;;22.22;65.01;95282.88;5027638;28;20201;-27
2023/10/27 02:19:37;;;;;;;2.13;1.50;;;;;;;22.23;65.14;95287.09;5023480;28;20238;-26
2023/10/27 02:22:04;;;;;;;2.77;1.60;;;;;;;22.23;65.10;95287.09;5030256;28;20256;-26
2023/10/27 02:24:31;;;;;;;1.67;1.50;;;;;;;22.24;64.48;95287.97;5026955;28;20229;-28
2023/10/27 02:26:58;;;;;;;2.30;1.80;;;;;;;22.23;65.14;95289.66;5023878;28;20201;-26
2023/10/27 02:29:25;;;;;;;2.83;1.80;;;;;;;22.22;65.07;95293.09;5023793;28;20261;-28
2023/10/27 02:31:52;;;;;;;2.00;1.73;;;;;;;22.23;65.04;95288.84;5031868;28;20320;-26
2023/10/27 02:34:18;;;;;;;1.73;1.40;;;;;;;22.22;64.97;95282.88;5031649;28;20301;-26
2023/10/27 02:36:45;;;;;;;1.77;1.63;;;;;;;22.24;64.81;95290.53;5017807;28;20210;-28
2023/10/27 02:39:11;;;;;;;1.60;1.50;;;;;;;22.23;64.99;95289.66;5027694;28;20202;-26
2023/10/27 02:41:38;;;;;;;2.63;1.80;;;;;;;22.23;65.06;95294.78;5030471;28;20225;-27
2023/10/27 02:44:05;;;;;;;1.73;1.50;;;;;;;22.24;64.90;95295.66;5023322;28;20336;-26
2023/10/27 02:46:35;;;;;;;1.57;1.47;;;;;;;22.24;64.99;95303.31;5031896;28;20221;-28
2023/10/27 02:49:05;;;;;;;1.83;1.70;;;;;;;22.24;64.80;95293.09;5030087;28;20300;-29
2023/10/27 02:51:32;;;;;;;1.57;1.43;;;;;;;22.24;64.97;95287.97;5033627;28;20304;-29
2023/10/27 02:53:59;;;;;;;2.00;1.60;;;;;;;22.25;64.99;95294.78;5030620;28;20228;-29
2023/10/27 02:56:25;;;;;;;1.57;1.47;;;;;;;22.24;64.94;95293.94;5031721;28;20213;-27
2023/10/27 02:58:52;;;;;;;1.73;1.63;;;;;;;22.23;64.90;95287.09;5033374;28;20263;-27
2023/10/27 03:01:18;;;;;;;1.70;1.60;;;;;;;22.22;65.11;95287.97;5032184;28;20225;-34
2023/10/27 03:03:45;;;;;;;1.97;1.77;;;;;;;22.23;65.07;95291.41;5032850;28;20198;-26
2023/10/27 03:06:12;;;;;;;1.70;1.53;;;;;;;22.22;65.04;95279.44;5032051;28;20212;-26
2023/10/27 03:08:39;;;;;;;2.10;1.63;;;;;;;22.22;65.00;95287.13;5030327;28;20260;-27
2023/10/27 03:11:06;;;;;;;2.10;1.67;;;;;;;22.22;65.02;95280.31;5031857;28;20734;-28
2023/10/27 03:13:32;;;;;;;1.70;1.60;;;;;;;22.23;65.10;95278.59;5026377;28;20337;-26
2023/10/27 03:15:59;;;;;;;2.13;1.67;;;;;;;22.24;65.06;95290.53;5028915;28;20202;-27
2023/10/27 03:18:26;;;;;;;1.50;1.40;;;;;;;22.24;64.90;95287.97;5024887;28;20205;-28
2023/10/27 03:20:56;;;;;;;2.00;1.50;;;;;;;22.21;65.09;95285.44;5032101;28;20236;-28
2023/10/27 03:23:23;;;;;;;2.00;1.70;;;;;;;22.24;64.80;95290.53;5022770;28;20212;-32
2023/10/27 03:25:50;;;;;;;1.70;1.60;;;;;;;22.24;64.91;95293.94;5023350;28;20233;-27
2023/10/27 03:28:16;;;;;;;1.97;1.67;;;;;;;22.25;64.90;95297.34;5028495;28;20297;-27
2023/10/27 03:30:44;;;;;;;1.60;1.37;;;;;;;22.24;64.88;95298.19;5030366;28;20201;-30
2023/10/27 03:33:10;;;;;;;2.13;1.70;;;;;;;22.24;64.71;95296.50;5017210;28;20628;-28
2023/10/27 03:35:40;;;;;;;1.70;1.60;;;;;;;22.24;64.80;95296.50;5028585;28;20276;-26
2023/10/27 03:38:07;;;;;;;1.40;1.30;;;;;;;22.24;64.91;95282.84;5018111;28;20206;-26
2023/10/27 03:40:33;;;;;;;2.23;1.57;;;;;;;22.24;64.94;95283.72;5023425;28;20205;-26
2023/10/27 03:43:00;;;;;;;1.60;1.50;;;;;;;22.23;64.70;95276.88;5031372;28;20659;-26
2023/10/27 03:45:26;;;;;;;1.97;1.60;;;;;;;22.23;64.67;95281.16;5032197;28;20201;-26
2023/10/27 03:47:53;;;;;;;2.03;1.60;;;;;;;22.24;64.75;95278.59;5021638;28;20202;-26
2023/10/27 03:50:20;;;;;;;1.70;1.60;;;;;;;22.24;64.75;95275.19;5023455;28;20264;-26
2023/10/27 03:52:46;;;;;;;1.73;1.50;;;;;;;22.24;64.56;95280.28;5024011;28;20257;-28
2023/10/27 03:55:13;;;;;;;1.73;1.63;;;;;;;22.25;64.66;95275.16;5028142;28;20688;-26
2023/10/27 03:57:40;;;;;;;1.73;1.50;;;;;;;22.26;64.95;95281.13;5032462;28;20233;-26
2023/10/27 04:00:07;;;;;;;1.50;1.40;;;;;;;22.16;64.75;95264.16;5021590;28;20302;-28
2023/10/27 04:02:34;;;;;;;4.40;1.40;;;;;;;22.26;64.68;95281.13;5031005;28;20276;-26
2023/10/27 04:05:00;;;;;;;1.90;1.60;;;;;;;22.25;64.71;95281.97;5032140;28;20284;-26
2023/10/27 04:07:27;;;;;;;1.80;1.47;;;;;;;22.26;64.85;95281.13;5020195;28;20236;-35
2023/10/27 04:09:53;;;;;;;1.53;1.43;;;;;;;22.25;64.60;95275.16;5020741;28;20210;-27
2023/10/27 04:12:20;;;;;;;1.73;1.30;;;;;;;22.25;64.70;95274.31;5018596;28;20234;-29
2023/10/27 04:14:48;;;;;;;1.60;1.50;;;;;;;22.25;64.59;95271.75;5029385;28;20221;-26
2023/10/27 04:17:14;;;;;;;2.57;1.63;;;;;;;22.25;64.46;95279.41;5026011;28;20216;-26
2023/10/27 04:19:43;;;;;;;1.93;1.57;;;;;;;22.24;64.58;95278.59;5031081;28;20292;-26
2023/10/27 04:22:10;;;;;;;1.90;1.70;;;;;;;22.26;64.72;95273.47;5022017;28;20234;-27
2023/10/27 04:24:37;;;;;;;1.50;1.40;;;;;;;22.25;64.41;95279.41;5028058;28;20194;-26
2023/10/27 04:27:04;;;;;;;1.80;1.53;;;;;;;22.24;64.61;95280.28;5024629;28;20257;-31
2023/10/27 04:29:31;;;;;;;1.70;1.60;;;;;;;22.24;64.57;95278.59;5028863;28;20202;-27
2023/10/27 04:31:57;;;;;;;1.73;1.50;;;;;;;22.24;64.65;95283.72;5031895;28;20213;-26
2023/10/27 04:34:24;;;;;;;2.10;1.50;;;;;;;22.25;64.56;95281.97;5031520;28;20724;-28
2023/10/27 04:36:50;;;;;;;2.07;1.70;;;;;;;22.23;64.57;95276.88;5031774;28;20198;-26
2023/10/27 04:39:17;;;;;;;1.50;1.40;;;;;;;22.25;64.64;95279.41;5028641;28;20268;-26
2023/10/27 04:41:44;;;;;;;3.43;1.83;;;;;;;22.24;64.72;95275.19;5031632;28;20217;-26
2023/10/27 04:44:12;;;;;;;2.17;1.63;;;;;;;22.24;64.45;95273.47;5026067;28;20255;-27
2023/10/27 04:46:38;;;;;;;1.77;1.50;;;;;;;22.25;64.54;95277.72;5029725;28;20201;-29
2023/10/27 04:49:05;;;;;;;1.73;1.50;;;;;;;22.25;64.56;95279.41;5018761;28;20248;-28
2023/10/27 04:51:32;;;;;;;1.67;1.50;;;;;;;22.25;64.45;95274.31;5033365;28;20229;-26
2023/10/27 04:53:58;;;;;;;1.67;1.30;;;;;;;22.24;64.69;95281.16;5026126;28;20221;-26
2023/10/27 04:56:26;;;;;;;2.33;1.40;;;;;;;22.23;64.62;95297.34;5018238;28;20283;-27
2023/10/27 04:58:52;;;;;;;1.43;1.33;;;;;;;22.24;64.71;95295.66;5027636;28;20259;-26
2023/10/27 05:01:24;;;;;;;1.50;1.40;;;;;;;22.24;64.56;95293.94;5017010;28;20225;-31
2023/10/27 05:03:54;;;;;;;1.50;1.40;;;;;;;22.24;64.59;95291.38;5024926;28;20196;-37
2023/10/27 05:06:21;;;;;;;2.37;1.60;;;;;;;22.24;64.53;95280.28;5023174;28;20199;-26
2023/10/27 05:08:47;;;;;;;1.87;1.53;;;;;;;22.23;64.40;95283.72;5024909;28;20198;-29
2023/10/27 05:11:14;;;;;;;1.63;1.30;;;;;;;22.24;64.64;95287.97;5005206;28;20419;-26
2023/10/27 05:13:40;;;;;;;1.63;1.53;;;;;;;22.23;64.56;95287.09;5025704;28;20206;-27
2023/10/27 05:16:07;;;;;;;1.60;1.50;;;;;;;22.24;64.38;95287.97;5023131;28;20553;-26
2023/10/27 05:18:34;;;;;;;1.57;1.47;;;;;;;22.24;64.46;95280.28;5023694;28;20210;-31
2023/10/27 05:21:00;;;;;;;1.73;1.30;;;;;;;22.25;64.55;95289.66;5022153;28;20271;-26
2023/10/27 05:23:27;;;;;;;1.90;1.40;;;;;;;22.25;64.56;95287.09;5023277;28;20203;-26
2023/10/27 05:25:53;;;;;;;5.00;1.60;;;;;;;22.23;64.57;95284.56;5025145;28;20284;-26
2023/10/27 05:28:20;;;;;;;4.53;1.60;;;;;;;22.24;64.48;95293.94;5031588;28;20248;-35
2023/10/27 05:30:50;;;;;;;2.87;1.60;;;;;;;22.25;64.57;95298.19;5026677;28;20260;-27
2023/10/27 05:33:17;;;;;;;1.97;1.70;;;;;;;22.25;64.38;95287.09;5027609;28;20193;-27
2023/10/27 05:35:43;;;;;;;2.20;1.60;;;;;;;22.24;63.50;95282.84;5024768;28;20287;-26
2023/10/27 05:38:10;;;;;;;2.10;1.80;;;;;;;22.24;61.72;95285.41;5033403;28;20702;-26
2023/10/27 05:40:36;;;;;;;3.70;2.30;;;;;;;22.22;60.05;95280.31;5027159;28;20193;-27
2023/10/27 05:43:03;;;;;;;4.00;2.33;;;;;;;22.21;59.15;95283.75;5028810;28;20300;-27
2023/10/27 05:45:30;;;;;;;5.77;2.63;;;;;;;22.20;58.25;95281.19;5028646;28;20221;-27
2023/10/27 05:47:56;;;;;;;2.60;2.00;;;;;;;22.17;58.01;95276.94;5024825;28;20548;-27
2023/10/27 05:50:23;;;;;;;4.10;2.50;;;;;;;22.18;57.82;95294.00;5026379;28;20224;-28
2023/10/27 05:52:49;;;;;;;3.63;2.30;;;;;;;22.18;57.84;95291.44;5033157;28;20259;-29
2023/10/27 05:55:16;;;;;;;5.03;2.43;;;;;;;22.18;57.54;95291.44;5026880;28;20260;-26
2023/10/27 05:57:43;;;;;;;2.33;2.03;;;;;;;22.17;57.25;95294.00;5021255;28;20260;-26
2023/10/27 06:00:10;;;;;;;4.60;2.47;;;;;;;22.17;57.42;95289.72;5031196;28;20205;-26
2023/10/27 06:02:36;;;;;;;4.00;2.20;;;;;;;22.18;58.10;95298.25;5020173;28;20309;-26
2023/10/27 06:05:04;;;;;;;4.03;2.30;;;;;;;22.18;58.49;95305.94;5022937;28;20583;-26
2023/10/27 06:07:31;;;;;;;4.97;2.63;;;;;;;22.18;59.11;95324.69;5032696;28;20202;-26
2023/10/27 06:09:58;;;;;;;2.67;2.03;;;;;;;22.18;59.41;95317.03;5028804;28;20200;-29
2023/10/27 06:12:24;;;;;;;3.33;2.10;;;;;;;22.19;59.60;95326.38;5030230;28;20222;-26
2023/10/27 06:14:51;;;;;;;2.87;1.87;;;;;;;22.19;59.93;95323.81;5021057;28;20269;-26
2023/10/27 06:17:18;;;;;;;2.27;2.07;;;;;;;22.18;59.99;95337.50;5023421;28;20202;-26
2023/10/27 06:19:44;;;;;;;3.77;2.03;;;;;;;22.19;60.49;95341.72;5027191;28;20629;-29
2023/10/27 06:22:18;;;;;;;3.47;1.93;;;;;;;22.19;60.46;95344.28;5024745;28;20249;-26
2023/10/27 06:24:44;;;;;;;2.20;1.83;;;;;;;22.17;60.50;95346.00;5020634;28;20784;-26
2023/10/27 06:27:11;;;;;;;2.93;1.97;;;;;;;22.17;60.32;95352.84;5021366;28;20616;-28
2023/10/27 06:29:37;;;;;;;2.70;1.90;;;;;;;22.16;59.15;95349.44;5023173;28;20201;-36
2023/10/27 06:32:04;;;;;;;2.77;2.10;;;;;;;22.16;57.90;95353.69;5015629;28;20214;-26
2023/10/27 06:34:31;;;;;;;3.30;2.20;;;;;;;22.15;57.32;95352.00;5020310;28;20313;-29
2023/10/27 06:36:58;;;;;;;8.47;2.43;;;;;;;22.13;56.56;95352.00;5015322;28;20194;-27
2023/10/27 06:39:27;;;;;;;3.50;2.37;;;;;;;22.12;56.11;95359.69;5014954;28;20229;-27
2023/10/27 06:41:54;;;;;;;3.60;2.33;;;;;;;22.11;56.46;95361.41;5020974;28;20217;-27
2023/10/27 06:44:20;;;;;;;2.23;1.70;;;;;;;22.11;57.24;95358.84;5026645;28;20194;-26
2023/10/27 06:46:47;;;;;;;3.07;2.00;;;;;;;22.13;57.71;95351.16;5028800;28;20433;-26
2023/10/27 06:49:14;;;;;;;2.53;2.13;;;;;;;22.13;58.09;95359.69;5024799;28;21501;-28
2023/10/27 06:51:40;;;;;;;2.30;1.70;;;;;;;22.13;58.48;95357.13;5026497;28;20314;-26
2023/10/27 06:54:07;;;;;;;3.13;1.80;;;;;;;22.14;58.61;95355.44;5022235;28;20722;-27
2023/10/27 06:56:33;;;;;;;4.57;2.30;;;;;;;22.14;58.75;95352.88;5029072;28;20752;-27
2023/10/27 06:59:00;;;;;;;5.50;1.97;;;;;;;22.14;58.97;95355.44;5018264;28;20292;-35
2023/10/27 07:01:26;;;;;;;2.60;1.83;;;;;;;22.14;59.08;95361.38;5022687;28;20264;-28
2023/10/27 07:03:53;;;;;;;3.53;2.00;;;;;;;22.15;59.48;95354.56;5026189;28;20204;-27
2023/10/27 07:06:20;;;;;;;3.80;1.97;;;;;;;22.16;59.75;95349.44;5021582;28;20687;-26
2023/10/27 07:08:46;;;;;;;3.20;2.13;;;;;;;22.17;59.96;95350.28;5014604;28;20221;-30
2023/10/27 07:11:13;;;;;;;2.23;1.70;;;;;;;22.18;60.17;95342.59;5032911;28;20225;-28
2023/10/27 07:13:41;;;;;;;5.27;2.03;;;;;;;22.20;60.25;95342.59;5033605;28;20216;-27
2023/10/27 07:16:07;;;;;;;1.83;1.63;;;;;;;22.21;60.26;95354.50;5021658;28;20224;-31
2023/10/27 07:18:34;;;;;;;6.53;1.70;;;;;;;22.21;60.48;95357.06;5028427;28;20202;-26
2023/10/27 07:21:04;;;;;;;2.63;1.53;;;;;;;22.23;60.56;95360.47;5018014;28;20224;-26
2023/10/27 07:23:31;;;;;;;2.43;1.73;;;;;;;22.23;60.68;95361.31;5028220;28;20229;-26
2023/10/27 07:25:57;;;;;;;3.77;2.07;;;;;;;22.24;60.72;95362.16;5020698;28;20198;-33
2023/10/27 07:28:24;;;;;;;2.70;1.70;;;;;;;22.24;60.71;95373.25;5029202;28;20213;-27
2023/10/27 07:30:50;;;;;;;2.13;1.80;;;;;;;22.26;60.57;95373.25;5031930;28;20222;-26
2023/10/27 07:33:17;;;;;;;2.83;1.67;;;;;;;22.27;60.85;95369.81;5032809;28;20620;-26
2023/10/27 07:35:45;;;;;;;3.53;1.67;;;;;;;22.27;60.97;95368.13;5032575;28;20217;-28
2023/10/27 07:38:12;;;;;;;3.53;1.80;;;;;;;22.28;61.24;95371.50;5032452;28;20206;-32
2023/10/27 07:40:42;;;;;;;5.20;1.90;;;;;;;22.30;61.32;95377.47;5030016;28;20201;-26
2023/10/27 07:43:09;;;;;;;5.23;1.70;;;;;;;22.30;61.61;95372.34;5030276;28;20201;-26
2023/10/27 07:45:35;;;;;;;5.13;1.90;;;;;;;22.30;61.65;95364.69;5027591;28;20256;-26
2023/10/27 07:48:03;;;;;;;4.80;1.90;;;;;;;22.31;61.63;95369.78;5021612;28;20243;-28
2023/10/27 07:50:30;;;;;;;5.90;1.80;;;;;;;22.33;61.63;95374.88;5021061;28;20291;-28
2023/10/27 07:52:56;;;;;;;2.93;1.70;;;;;;;22.33;61.72;95374.88;5025691;28;20206;-35
2023/10/27 07:55:23;;;;;;;1.63;1.40;;;;;;;22.33;61.74;95369.78;5028315;28;20213;-27
2023/10/27 07:57:49;;;;;;;2.23;1.63;;;;;;;22.35;61.56;95373.19;5032958;28;20198;-26
2023/10/27 08:00:16;;;;;;;3.23;1.87;;;;;;;22.34;61.63;95369.75;5027541;28;20280;-26
2023/10/27 08:02:43;;;;;;;2.93;1.80;;;;;;;22.36;61.57;95368.03;5031491;28;20237;-27
2023/10/27 08:05:10;;;;;;;2.40;1.67;;;;;;;22.36;61.43;95365.47;5028809;28;20194;-26
2023/10/27 08:07:37;;;;;;;2.40;1.60;;;;;;;22.35;61.77;95362.94;5028830;28;20236;-27
2023/10/27 08:10:07;;;;;;;3.30;1.40;;;;;;;22.36;61.48;95368.03;5022710;28;20202;-27
2023/10/27 08:12:34;;;;;;;3.13;1.70;;;;;;;22.38;61.82;95368.84;5030588;28;20221;-26
2023/10/27 08:15:05;;;;;;;3.20;1.90;;;;;;;22.38;61.74;95381.66;5025932;28;20232;-26
2023/10/27 08:17:33;;;;;;;5.87;1.80;;;;;;;22.37;62.06;95376.56;5021912;28;20202;-26
2023/10/27 08:19:59;;;;;;;5.00;2.00;;;;;;;22.26;62.22;95357.91;5026901;28;20289;-26
2023/10/27 08:22:26;;;;;;;3.83;2.00;;;;;;;22.40;62.29;95384.19;5031316;28;20660;-26
2023/10/27 08:24:53;;;;;;;5.73;1.80;;;;;;;22.39;62.22;95385.94;5032555;28;20576;-26
2023/10/27 08:27:19;;;;;;;11.20;2.00;;;;;;;22.37;62.25;95386.78;5025659;28;20589;-26
2023/10/27 08:29:46;;;;;;;10.13;2.03;;;;;;;22.40;62.08;95391.88;5032512;28;20201;-30
2023/10/27 08:32:14;;;;;;;3.40;1.90;;;;;;;22.40;61.70;95387.63;5023931;28;20563;-26
2023/10/27 08:34:41;;;;;;;11.13;2.17;;;;;;;22.39;61.60;95395.31;5029870;28;20578;-26
2023/10/27 08:37:08;;;;;;;8.83;2.20;;;;;;;22.39;61.41;95385.94;5027250;28;20198;-28
2023/10/27 08:39:34;;;;;;;3.77;2.07;;;;;;;22.39;61.47;95400.44;5026443;28;20206;-30
2023/10/27 08:42:04;;;;;;;4.53;2.10;;;;;;;22.39;61.19;95401.28;5021214;28;20230;-26
2023/10/27 08:44:30;;;;;;;5.17;2.23;;;;;;;22.36;61.14;95398.75;5026137;28;20197;-27
2023/10/27 08:46:57;;;;;;;3.73;2.13;;;;;;;22.40;61.31;95407.22;5014576;28;20256;-26
2023/10/27 08:49:24;;;;;;;3.90;2.33;;;;;;;22.41;61.51;95411.50;5031419;28;20201;-27
2023/10/27 08:51:51;;;;;;;9.00;2.87;;;;;;;22.42;62.02;95418.31;5025139;28;20222;-28
2023/10/27 08:54:17;;;;;;;5.87;2.50;;;;;;;22.40;62.03;95420.03;5022348;28;20677;-38
2023/10/27 08:56:44;;;;;;;7.40;3.40;;;;;;;22.42;62.55;95424.31;5027836;28;20252;-27
2023/10/27 08:59:11;;;;;;;16.90;3.80;;;;;;;22.46;63.74;95431.09;5007183;28;20205;-27
2023/10/27 09:01:37;;;;;;;13.33;3.37;;;;;;;22.46;62.24;95427.66;5018583;28;20225;-29
2023/10/27 09:04:20;;;;;;;7.50;3.40;;;;;;;22.46;61.50;95433.63;5023444;28;20209;-26
2023/10/27 09:06:47;;;;;;;10.23;3.60;;;;;;;22.44;61.80;95435.34;5020339;28;20195;-26
2023/10/27 09:09:14;;;;;;;8.43;3.17;;;;;;;22.42;61.40;95437.09;5022200;28;20617;-26
2023/10/27 09:11:42;;;;;;;6.17;3.30;;;;;;;22.41;61.47;95442.22;5027011;28;20779;-26
2023/10/27 09:14:30;;;;;;;11.10;3.43;;;;;;;22.42;61.52;95449.03;5021513;28;20202;-29
2023/10/27 09:17:06;;;;;;;6.60;3.30;;;;;;;22.42;61.54;95444.78;5026021;28;20608;-30
2023/10/27 09:19:33;;;;;;;9.23;3.10;;;;;;;22.42;61.03;95451.59;5019201;28;20454;-26
2023/10/27 09:22:00;;;;;;;7.57;3.40;;;;;;;22.43;60.86;95448.16;5023906;28;20217;-26
2023/10/27 09:24:27;;;;;;;7.00;2.87;;;;;;;22.42;60.96;95452.44;5021394;28;20630;-27
2023/10/27 09:26:59;;;;;;;4.97;2.53;;;;;;;22.41;61.01;95448.16;5022149;28;20268;-26
2023/10/27 09:29:26;;;;;;;6.80;2.80;;;;;;;22.41;61.05;95453.28;5032105;28;20284;-26
2023/10/27 09:31:53;;;;;;;6.70;2.77;;;;;;;22.34;61.25;95443.97;5022980;28;20214;-26
2023/10/27 09:34:24;;;;;;;6.83;2.67;;;;;;;22.40;61.35;95453.31;5033462;28;20206;-26
2023/10/27 09:36:56;;;;;;;7.60;2.90;;;;;;;22.39;61.21;95452.47;5020380;28;20268;-29
2023/10/27 09:39:23;;;;;;;7.80;2.60;;;;;;;22.38;61.05;95463.53;5024549;28;20230;-28
2023/10/27 09:42:03;;;;;;;6.83;2.60;;;;;;;22.40;60.97;95458.41;5024711;28;20224;-26
2023/10/27 09:44:40;;;;;;;8.57;2.57;;;;;;;22.38;61.37;95460.16;5030611;28;20287;-27
2023/10/27 09:47:10;;;;;;;9.70;2.90;;;;;;;22.41;61.60;95463.53;5013985;28;20194;-29
2023/10/27 09:49:37;;;;;;;7.77;2.63;;;;;;;22.40;61.17;95458.41;5032298;28;20256;-26
2023/10/27 09:52:06;;;;;;;5.73;2.60;;;;;;;22.40;60.72;95474.63;5021676;28;20214;-30
2023/10/27 09:54:32;;;;;;;4.27;2.20;;;;;;;22.42;59.87;95477.19;5014680;28;20661;-28
2023/10/27 09:57:04;;;;;;;5.83;2.33;;;;;;;22.41;59.49;95476.31;5025916;28;20228;-26
2023/10/27 09:59:30;;;;;;;5.20;2.17;;;;;;;22.39;59.42;95480.63;5034674;28;20691;-26
2023/10/27 10:02:04;;;;;;;3.13;2.00;;;;;;;22.39;59.64;95483.19;5024421;28;20237;-26
2023/10/27 10:04:50;;;;;;;4.87;2.03;;;;;;;22.39;60.00;95484.88;5030059;28;20260;-26
2023/10/27 10:07:37;;;;;;;6.63;2.20;;;;;;;22.39;60.19;95482.31;5021241;28;20198;-26
2023/10/27 10:10:34;;;;;;;2.77;2.00;;;;;;;22.39;60.27;95484.88;5016930;28;20226;-26
2023/10/27 10:13:14;;;;;;;4.40;2.10;;;;;;;22.37;60.47;95489.16;5026031;28;20197;-27
2023/10/27 10:15:42;;;;;;;3.37;1.90;;;;;;;22.37;60.62;95490.00;5022832;28;20226;-31
2023/10/27 10:18:48;;;;;;;5.80;2.20;;;;;;;22.39;60.94;95484.88;5027983;28;20650;-29
2023/10/27 10:21:39;;;;;;;2.80;1.70;;;;;;;22.38;60.91;95484.03;5022245;28;20304;-26
2023/10/27 10:24:08;;;;;;;3.67;2.00;;;;;;;22.38;61.00;95481.47;5024831;28;20260;-26
2023/10/27 10:27:04;;;;;;;5.53;2.00;;;;;;;22.38;61.11;95480.63;5022844;28;20558;-26
2023/10/27 10:29:32;;;;;;;3.43;2.00;;;;;;;22.38;61.15;95476.34;5017094;28;20657;-35
2023/10/27 10:32:33;;;;;;;2.70;1.83;;;;;;;22.39;61.39;95479.75;5019854;28;20570;-26
2023/10/27 10:35:19;;;;;;;2.50;1.80;;;;;;;22.38;61.25;95478.91;5020379;28;20194;-27
2023/10/27 10:37:46;;;;;;;7.50;2.13;;;;;;;22.38;61.41;95484.03;5020766;28;20259;-26
2023/10/27 10:40:22;;;;;;;3.63;1.73;;;;;;;22.37;61.46;95478.91;5021799;28;20289;-26
2023/10/27 10:43:18;;;;;;;4.27;1.87;;;;;;;22.35;61.33;95468.69;5029434;28;20704;-26
2023/10/27 10:45:50;;;;;;;5.70;1.97;;;;;;;22.34;61.53;95467.00;5031525;28;20204;-27
2023/10/27 10:48:18;;;;;;;3.20;1.80;;;;;;;22.35;61.37;95465.28;5022964;28;20201;-27
2023/10/27 10:50:46;;;;;;;4.90;1.90;;;;;;;22.35;61.49;95476.34;5031869;28;20230;-26
2023/10/27 10:53:16;;;;;;;3.27;1.90;;;;;;;22.34;61.45;95479.78;5023920;28;20206;-27
2023/10/27 10:55:45;;;;;;;2.67;1.73;;;;;;;22.34;61.73;95477.22;5022711;28;20279;-26
2023/10/27 10:58:24;;;;;;;3.27;1.97;;;;;;;22.35;61.66;95480.66;5027885;28;20198;-27
2023/10/27 11:00:51;;;;;;;2.17;1.77;;;;;;;22.35;61.70;95484.03;5021199;28;20213;-27
2023/10/27 11:03:21;;;;;;;5.30;1.80;;;;;;;22.34;61.78;95468.69;5031967;28;20198;-36
2023/10/27 11:05:47;;;;;;;4.40;1.93;;;;;;;22.35;61.79;95472.97;5023574;28;20652;-26
2023/10/27 11:08:24;;;;;;;2.73;1.77;;;;;;;22.35;61.89;95478.09;5017265;28;20194;-31
2023/10/27 11:11:00;;;;;;;2.57;1.80;;;;;;;22.35;61.75;95478.91;5025682;28;20260;-26
2023/10/27 11:13:27;;;;;;;2.77;1.73;;;;;;;22.36;61.70;95477.22;5024861;28;20232;-26
2023/10/27 11:15:53;;;;;;;2.70;2.03;;;;;;;22.34;61.49;95481.50;5030530;28;20588;-27
2023/10/27 11:18:20;;;;;;;2.83;1.67;;;;;;;22.35;61.58;95489.16;5023992;28;20230;-26
2023/10/27 11:20:48;;;;;;;3.00;1.80;;;;;;;22.35;61.37;95484.03;5025532;28;20221;-30
2023/10/27 11:23:15;;;;;;;3.43;1.77;;;;;;;22.37;61.60;95490.00;5026186;28;20253;-30
2023/10/27 11:25:43;;;;;;;3.83;1.60;;;;;;;22.38;61.58;95490.88;5026972;28;20640;-26
2023/10/27 11:28:22;;;;;;;4.20;1.80;;;;;;;22.37;61.50;95491.69;5021165;28;20202;-29
2023/10/27 11:31:08;;;;;;;1.70;1.40;;;;;;;22.37;61.58;95501.94;5025803;28;20223;-26
2023/10/27 11:34:01;;;;;;;2.83;1.70;;;;;;;22.36;61.68;95503.69;5023380;28;20793;-26
2023/10/27 11:36:58;;;;;;;2.97;1.87;;;;;;;22.37;61.72;95519.84;5025126;28;20225;-26
2023/10/27 11:39:25;;;;;;;4.90;2.00;;;;;;;22.36;61.77;95515.59;5026839;28;20202;-26